sensor_id;sensor_type;location;lat;lon;timestamp;P1;durP1;ratioP1;P2;durP2;ratioP2
11572;SDS011;5842;52.426;4.886;2023-02-24T00:01:09;7.93;;;2.00;;
11572;SDS011;5842;52.426;4.886;2023-02-24T00:03:39;4.20;;;1.73;;
11572;SDS011;5842;52.426;4.886;2023-02-24T00:06:09;7.20;;;1.70;;
11572;SDS011;5842;52.426;4.886;2023-02-24T00:08:36;8.73;;;1.93;;
11572;SDS011;5842;52.426;4.886;2023-02-24T00:11:08;5.17;;;1.73;;
11572;SDS011;5842;52.426;4.886;2023-02-24T00:13:37;6.00;;;1.43;;
11572;SDS011;5842;52.426;4.886;2023-02-24T00:16:05;9.17;;;1.50;;
11572;SDS011;5842;52.426;4.886;2023-02-24T00:18:32;9.27;;;1.80;;
11572;SDS011;5842;52.426;4.886;2023-02-24T00:21:03;4.10;;;1.53;;
11572;SDS011;5842;52.426;4.886;2023-02-24T00:23:32;8.73;;;2.03;;
11572;SDS011;5842;52.426;4.886;2023-02-24T00:26:01;5.80;;;1.50;;
11572;SDS011;5842;52.426;4.886;2023-02-24T00:28:29;8.80;;;1.50;;
11572;SDS011;5842;52.426;4.886;2023-02-24T00:31:00;9.30;;;1.63;;
11572;SDS011;5842;52.426;4.886;2023-02-24T00:33:28;5.43;;;1.50;;
11572;SDS011;5842;52.426;4.886;2023-02-24T00:36:04;3.80;;;1.60;;
11572;SDS011;5842;52.426;4.886;2023-02-24T00:38:32;4.13;;;1.43;;
11572;SDS011;5842;52.426;4.886;2023-02-24T00:41:06;11.23;;;1.97;;
11572;SDS011;5842;52.426;4.886;2023-02-24T00:43:36;9.03;;;1.83;;
11572;SDS011;5842;52.426;4.886;2023-02-24T00:46:04;4.47;;;1.50;;
11572;SDS011;5842;52.426;4.886;2023-02-24T00:48:36;4.53;;;1.30;;
11572;SDS011;5842;52.426;4.886;2023-02-24T00:51:07;5.57;;;1.70;;
11572;SDS011;5842;52.426;4.886;2023-02-24T00:53:35;7.03;;;1.53;;
11572;SDS011;5842;52.426;4.886;2023-02-24T00:56:04;6.27;;;1.70;;
11572;SDS011;5842;52.426;4.886;2023-02-24T00:58:34;4.50;;;1.40;;
11572;SDS011;5842;52.426;4.886;2023-02-24T01:01:01;5.57;;;1.57;;
11572;SDS011;5842;52.426;4.886;2023-02-24T01:03:29;7.73;;;1.50;;
11572;SDS011;5842;52.426;4.886;2023-02-24T01:05:59;6.90;;;1.63;;
11572;SDS011;5842;52.426;4.886;2023-02-24T01:08:29;6.50;;;1.50;;
11572;SDS011;5842;52.426;4.886;2023-02-24T01:11:01;5.43;;;1.77;;
11572;SDS011;5842;52.426;4.886;2023-02-24T01:13:46;4.77;;;1.50;;
11572;SDS011;5842;52.426;4.886;2023-02-24T01:16:14;4.30;;;1.60;;
11572;SDS011;5842;52.426;4.886;2023-02-24T01:18:44;7.20;;;1.83;;
11572;SDS011;5842;52.426;4.886;2023-02-24T01:21:13;5.30;;;1.40;;
11572;SDS011;5842;52.426;4.886;2023-02-24T01:23:41;6.97;;;1.87;;
11572;SDS011;5842;52.426;4.886;2023-02-24T01:26:10;4.53;;;1.73;;
11572;SDS011;5842;52.426;4.886;2023-02-24T01:28:39;6.20;;;1.77;;
11572;SDS011;5842;52.426;4.886;2023-02-24T01:31:07;8.67;;;2.20;;
11572;SDS011;5842;52.426;4.886;2023-02-24T01:33:34;7.33;;;1.70;;
11572;SDS011;5842;52.426;4.886;2023-02-24T01:36:07;5.33;;;1.70;;
11572;SDS011;5842;52.426;4.886;2023-02-24T01:38:34;2.87;;;1.70;;
11572;SDS011;5842;52.426;4.886;2023-02-24T01:41:04;5.43;;;2.00;;
11572;SDS011;5842;52.426;4.886;2023-02-24T01:43:32;6.53;;;2.10;;
11572;SDS011;5842;52.426;4.886;2023-02-24T01:46:00;7.47;;;1.60;;
11572;SDS011;5842;52.426;4.886;2023-02-24T01:48:27;6.83;;;2.00;;
11572;SDS011;5842;52.426;4.886;2023-02-24T01:50:55;7.30;;;2.20;;
11572;SDS011;5842;52.426;4.886;2023-02-24T01:53:22;3.87;;;1.63;;
11572;SDS011;5842;52.426;4.886;2023-02-24T01:55:50;6.77;;;1.70;;
11572;SDS011;5842;52.426;4.886;2023-02-24T01:58:21;4.73;;;1.77;;
11572;SDS011;5842;52.426;4.886;2023-02-24T02:00:50;3.63;;;1.90;;
11572;SDS011;5842;52.426;4.886;2023-02-24T02:03:19;7.37;;;1.70;;
11572;SDS011;5842;52.426;4.886;2023-02-24T02:05:49;5.73;;;1.97;;
11572;SDS011;5842;52.426;4.886;2023-02-24T02:08:17;6.13;;;2.13;;
11572;SDS011;5842;52.426;4.886;2023-02-24T02:10:45;7.07;;;1.90;;
11572;SDS011;5842;52.426;4.886;2023-02-24T02:13:14;7.40;;;1.50;;
11572;SDS011;5842;52.426;4.886;2023-02-24T02:15:48;10.73;;;1.77;;
11572;SDS011;5842;52.426;4.886;2023-02-24T02:18:22;5.33;;;1.50;;
11572;SDS011;5842;52.426;4.886;2023-02-24T02:20:58;5.13;;;1.90;;
11572;SDS011;5842;52.426;4.886;2023-02-24T02:23:34;6.00;;;1.70;;
11572;SDS011;5842;52.426;4.886;2023-02-24T02:26:14;6.47;;;1.40;;
11572;SDS011;5842;52.426;4.886;2023-02-24T02:28:53;5.13;;;1.50;;
11572;SDS011;5842;52.426;4.886;2023-02-24T02:31:33;3.50;;;1.30;;
11572;SDS011;5842;52.426;4.886;2023-02-24T02:34:19;4.40;;;1.33;;
11572;SDS011;5842;52.426;4.886;2023-02-24T02:36:54;7.30;;;1.67;;
11572;SDS011;5842;52.426;4.886;2023-02-24T02:39:29;4.80;;;1.63;;
11572;SDS011;5842;52.426;4.886;2023-02-24T02:41:59;6.87;;;1.60;;
11572;SDS011;5842;52.426;4.886;2023-02-24T02:44:33;4.97;;;1.70;;
11572;SDS011;5842;52.426;4.886;2023-02-24T02:47:10;4.47;;;1.60;;
11572;SDS011;5842;52.426;4.886;2023-02-24T02:49:42;7.10;;;1.70;;
11572;SDS011;5842;52.426;4.886;2023-02-24T02:52:11;5.63;;;1.60;;
11572;SDS011;5842;52.426;4.886;2023-02-24T02:54:42;4.23;;;1.73;;
11572;SDS011;5842;52.426;4.886;2023-02-24T02:57:14;7.90;;;2.00;;
11572;SDS011;5842;52.426;4.886;2023-02-24T02:59:46;6.37;;;2.00;;
11572;SDS011;5842;52.426;4.886;2023-02-24T03:02:15;5.90;;;1.50;;
11572;SDS011;5842;52.426;4.886;2023-02-24T03:04:47;9.57;;;1.70;;
11572;SDS011;5842;52.426;4.886;2023-02-24T03:07:19;3.67;;;1.27;;
11572;SDS011;5842;52.426;4.886;2023-02-24T03:09:49;5.90;;;1.23;;
11572;SDS011;5842;52.426;4.886;2023-02-24T03:12:23;7.30;;;1.80;;
11572;SDS011;5842;52.426;4.886;2023-02-24T03:14:53;3.23;;;1.20;;
11572;SDS011;5842;52.426;4.886;2023-02-24T03:17:27;4.70;;;1.27;;
11572;SDS011;5842;52.426;4.886;2023-02-24T03:19:57;5.77;;;1.40;;
11572;SDS011;5842;52.426;4.886;2023-02-24T03:22:27;6.80;;;1.83;;
11572;SDS011;5842;52.426;4.886;2023-02-24T03:24:58;7.97;;;1.60;;
11572;SDS011;5842;52.426;4.886;2023-02-24T03:27:26;4.37;;;1.30;;
11572;SDS011;5842;52.426;4.886;2023-02-24T03:29:56;3.93;;;1.47;;
11572;SDS011;5842;52.426;4.886;2023-02-24T03:32:25;2.93;;;1.20;;
11572;SDS011;5842;52.426;4.886;2023-02-24T03:34:59;4.40;;;2.00;;
11572;SDS011;5842;52.426;4.886;2023-02-24T03:37:28;7.83;;;1.77;;
11572;SDS011;5842;52.426;4.886;2023-02-24T03:39:59;7.73;;;1.70;;
11572;SDS011;5842;52.426;4.886;2023-02-24T03:42:37;4.23;;;1.60;;
11572;SDS011;5842;52.426;4.886;2023-02-24T03:45:09;5.17;;;1.53;;
11572;SDS011;5842;52.426;4.886;2023-02-24T03:47:36;7.43;;;1.50;;
11572;SDS011;5842;52.426;4.886;2023-02-24T03:50:10;4.37;;;1.17;;
11572;SDS011;5842;52.426;4.886;2023-02-24T03:52:39;4.87;;;1.20;;
11572;SDS011;5842;52.426;4.886;2023-02-24T03:55:15;8.40;;;1.50;;
11572;SDS011;5842;52.426;4.886;2023-02-24T03:57:46;4.40;;;1.27;;
11572;SDS011;5842;52.426;4.886;2023-02-24T04:00:25;3.73;;;1.20;;
11572;SDS011;5842;52.426;4.886;2023-02-24T04:03:00;5.70;;;1.47;;
11572;SDS011;5842;52.426;4.886;2023-02-24T04:05:30;7.83;;;1.40;;
11572;SDS011;5842;52.426;4.886;2023-02-24T04:07:59;6.20;;;1.77;;
11572;SDS011;5842;52.426;4.886;2023-02-24T04:10:29;5.53;;;1.20;;
11572;SDS011;5842;52.426;4.886;2023-02-24T04:13:00;7.57;;;1.83;;
11572;SDS011;5842;52.426;4.886;2023-02-24T04:15:31;6.67;;;1.33;;
11572;SDS011;5842;52.426;4.886;2023-02-24T04:18:02;7.67;;;1.63;;
11572;SDS011;5842;52.426;4.886;2023-02-24T04:20:33;6.43;;;1.67;;
11572;SDS011;5842;52.426;4.886;2023-02-24T04:23:04;7.43;;;1.53;;
11572;SDS011;5842;52.426;4.886;2023-02-24T04:25:33;7.43;;;1.87;;
11572;SDS011;5842;52.426;4.886;2023-02-24T04:28:01;6.07;;;1.83;;
11572;SDS011;5842;52.426;4.886;2023-02-24T04:30:29;6.10;;;1.80;;
11572;SDS011;5842;52.426;4.886;2023-02-24T04:32:57;9.43;;;1.90;;
11572;SDS011;5842;52.426;4.886;2023-02-24T04:35:25;6.70;;;2.03;;
11572;SDS011;5842;52.426;4.886;2023-02-24T04:37:54;7.37;;;2.17;;
11572;SDS011;5842;52.426;4.886;2023-02-24T04:40:22;10.87;;;2.83;;
11572;SDS011;5842;52.426;4.886;2023-02-24T04:42:50;7.83;;;2.67;;
11572;SDS011;5842;52.426;4.886;2023-02-24T04:45:18;7.60;;;2.30;;
11572;SDS011;5842;52.426;4.886;2023-02-24T04:47:47;11.53;;;2.60;;
11572;SDS011;5842;52.426;4.886;2023-02-24T04:50:15;9.00;;;2.57;;
11572;SDS011;5842;52.426;4.886;2023-02-24T04:52:51;14.70;;;3.00;;
11572;SDS011;5842;52.426;4.886;2023-02-24T04:55:21;10.57;;;3.10;;
11572;SDS011;5842;52.426;4.886;2023-02-24T04:57:51;7.90;;;2.60;;
11572;SDS011;5842;52.426;4.886;2023-02-24T05:00:18;9.77;;;3.00;;
11572;SDS011;5842;52.426;4.886;2023-02-24T05:02:47;7.17;;;2.97;;
11572;SDS011;5842;52.426;4.886;2023-02-24T05:05:14;7.70;;;3.20;;
11572;SDS011;5842;52.426;4.886;2023-02-24T05:07:42;8.70;;;3.10;;
11572;SDS011;5842;52.426;4.886;2023-02-24T05:10:12;12.27;;;3.70;;
11572;SDS011;5842;52.426;4.886;2023-02-24T05:12:42;9.67;;;3.23;;
11572;SDS011;5842;52.426;4.886;2023-02-24T05:15:10;8.93;;;3.43;;
11572;SDS011;5842;52.426;4.886;2023-02-24T05:17:37;10.97;;;3.03;;
11572;SDS011;5842;52.426;4.886;2023-02-24T05:20:06;12.37;;;3.13;;
11572;SDS011;5842;52.426;4.886;2023-02-24T05:22:52;14.87;;;3.57;;
11572;SDS011;5842;52.426;4.886;2023-02-24T05:25:19;11.67;;;3.60;;
11572;SDS011;5842;52.426;4.886;2023-02-24T05:27:50;7.40;;;3.43;;
11572;SDS011;5842;52.426;4.886;2023-02-24T05:30:18;12.47;;;3.77;;
11572;SDS011;5842;52.426;4.886;2023-02-24T05:32:45;10.97;;;3.50;;
11572;SDS011;5842;52.426;4.886;2023-02-24T05:35:13;10.80;;;3.43;;
11572;SDS011;5842;52.426;4.886;2023-02-24T05:37:40;13.20;;;3.50;;
11572;SDS011;5842;52.426;4.886;2023-02-24T05:40:09;14.00;;;3.20;;
11572;SDS011;5842;52.426;4.886;2023-02-24T05:42:38;10.03;;;2.97;;
11572;SDS011;5842;52.426;4.886;2023-02-24T05:45:11;11.43;;;3.20;;
11572;SDS011;5842;52.426;4.886;2023-02-24T05:47:38;8.43;;;2.73;;
11572;SDS011;5842;52.426;4.886;2023-02-24T05:50:10;11.10;;;3.30;;
11572;SDS011;5842;52.426;4.886;2023-02-24T05:52:37;12.30;;;2.93;;
11572;SDS011;5842;52.426;4.886;2023-02-24T05:55:05;11.90;;;3.10;;
11572;SDS011;5842;52.426;4.886;2023-02-24T05:57:39;10.90;;;2.90;;
11572;SDS011;5842;52.426;4.886;2023-02-24T06:00:08;9.10;;;2.97;;
11572;SDS011;5842;52.426;4.886;2023-02-24T06:02:42;7.60;;;2.70;;
11572;SDS011;5842;52.426;4.886;2023-02-24T06:05:14;8.23;;;3.00;;
11572;SDS011;5842;52.426;4.886;2023-02-24T06:07:49;10.07;;;3.20;;
11572;SDS011;5842;52.426;4.886;2023-02-24T06:10:20;9.10;;;3.20;;
11572;SDS011;5842;52.426;4.886;2023-02-24T06:12:47;10.93;;;2.73;;
11572;SDS011;5842;52.426;4.886;2023-02-24T06:15:15;11.80;;;2.80;;
11572;SDS011;5842;52.426;4.886;2023-02-24T06:17:44;7.97;;;2.73;;
11572;SDS011;5842;52.426;4.886;2023-02-24T06:20:11;8.30;;;3.00;;
11572;SDS011;5842;52.426;4.886;2023-02-24T06:22:40;12.87;;;2.80;;
11572;SDS011;5842;52.426;4.886;2023-02-24T06:25:07;12.80;;;3.00;;
11572;SDS011;5842;52.426;4.886;2023-02-24T06:27:36;11.13;;;3.03;;
11572;SDS011;5842;52.426;4.886;2023-02-24T06:30:04;15.60;;;2.80;;
11572;SDS011;5842;52.426;4.886;2023-02-24T06:32:34;10.43;;;2.53;;
11572;SDS011;5842;52.426;4.886;2023-02-24T06:35:03;12.83;;;2.83;;
11572;SDS011;5842;52.426;4.886;2023-02-24T06:37:31;9.80;;;2.50;;
11572;SDS011;5842;52.426;4.886;2023-02-24T06:39:59;11.37;;;2.40;;
11572;SDS011;5842;52.426;4.886;2023-02-24T06:42:39;9.60;;;2.77;;
11572;SDS011;5842;52.426;4.886;2023-02-24T06:45:07;9.83;;;2.70;;
11572;SDS011;5842;52.426;4.886;2023-02-24T06:47:35;8.33;;;2.90;;
11572;SDS011;5842;52.426;4.886;2023-02-24T06:50:05;11.43;;;2.90;;
11572;SDS011;5842;52.426;4.886;2023-02-24T06:52:33;18.20;;;2.90;;
11572;SDS011;5842;52.426;4.886;2023-02-24T06:55:01;9.20;;;3.80;;
11572;SDS011;5842;52.426;4.886;2023-02-24T06:57:29;11.17;;;2.80;;
11572;SDS011;5842;52.426;4.886;2023-02-24T06:59:58;13.23;;;3.10;;
11572;SDS011;5842;52.426;4.886;2023-02-24T07:02:40;10.70;;;2.93;;
11572;SDS011;5842;52.426;4.886;2023-02-24T07:05:09;13.80;;;3.30;;
11572;SDS011;5842;52.426;4.886;2023-02-24T07:07:38;16.13;;;3.13;;
11572;SDS011;5842;52.426;4.886;2023-02-24T07:10:10;11.13;;;3.17;;
11572;SDS011;5842;52.426;4.886;2023-02-24T07:12:38;13.80;;;3.30;;
11572;SDS011;5842;52.426;4.886;2023-02-24T07:15:06;11.47;;;3.30;;
11572;SDS011;5842;52.426;4.886;2023-02-24T07:17:34;11.23;;;3.33;;
11572;SDS011;5842;52.426;4.886;2023-02-24T07:20:02;16.00;;;3.57;;
11572;SDS011;5842;52.426;4.886;2023-02-24T07:38:22;15.83;;;3.47;;
11572;SDS011;5842;52.426;4.886;2023-02-24T07:40:50;13.63;;;3.43;;
11572;SDS011;5842;52.426;4.886;2023-02-24T07:43:19;10.43;;;2.83;;
11572;SDS011;5842;52.426;4.886;2023-02-24T07:45:48;12.50;;;3.87;;
11572;SDS011;5842;52.426;4.886;2023-02-24T07:48:16;11.00;;;3.30;;
11572;SDS011;5842;52.426;4.886;2023-02-24T07:50:45;15.43;;;3.60;;
11572;SDS011;5842;52.426;4.886;2023-02-24T07:53:15;14.13;;;3.50;;
11572;SDS011;5842;52.426;4.886;2023-02-24T07:55:44;10.43;;;3.50;;
11572;SDS011;5842;52.426;4.886;2023-02-24T07:58:12;10.80;;;3.23;;
11572;SDS011;5842;52.426;4.886;2023-02-24T08:00:39;13.80;;;3.73;;
11572;SDS011;5842;52.426;4.886;2023-02-24T08:03:24;14.83;;;3.23;;
11572;SDS011;5842;52.426;4.886;2023-02-24T08:05:53;14.57;;;3.70;;
11572;SDS011;5842;52.426;4.886;2023-02-24T08:08:24;13.87;;;3.57;;
11572;SDS011;5842;52.426;4.886;2023-02-24T08:11:03;19.37;;;3.77;;
11572;SDS011;5842;52.426;4.886;2023-02-24T08:13:34;17.63;;;3.23;;
11572;SDS011;5842;52.426;4.886;2023-02-24T08:16:03;16.73;;;3.70;;
11572;SDS011;5842;52.426;4.886;2023-02-24T08:18:31;16.10;;;3.60;;
11572;SDS011;5842;52.426;4.886;2023-02-24T08:21:01;12.30;;;3.60;;
11572;SDS011;5842;52.426;4.886;2023-02-24T08:23:29;11.70;;;3.60;;
11572;SDS011;5842;52.426;4.886;2023-02-24T08:26:02;16.07;;;3.67;;
11572;SDS011;5842;52.426;4.886;2023-02-24T08:28:36;12.97;;;3.30;;
11572;SDS011;5842;52.426;4.886;2023-02-24T08:31:03;15.70;;;3.87;;
11572;SDS011;5842;52.426;4.886;2023-02-24T08:33:31;12.77;;;3.23;;
11572;SDS011;5842;52.426;4.886;2023-02-24T08:36:01;14.43;;;3.77;;
11572;SDS011;5842;52.426;4.886;2023-02-24T08:38:29;14.00;;;3.53;;
11572;SDS011;5842;52.426;4.886;2023-02-24T08:41:14;17.27;;;4.03;;
11572;SDS011;5842;52.426;4.886;2023-02-24T08:43:44;21.97;;;4.30;;
11572;SDS011;5842;52.426;4.886;2023-02-24T08:46:13;15.20;;;4.53;;
11572;SDS011;5842;52.426;4.886;2023-02-24T08:48:43;17.17;;;4.20;;
11572;SDS011;5842;52.426;4.886;2023-02-24T08:51:11;14.37;;;4.47;;
11572;SDS011;5842;52.426;4.886;2023-02-24T08:53:41;16.87;;;4.70;;
11572;SDS011;5842;52.426;4.886;2023-02-24T08:56:11;14.77;;;5.47;;
11572;SDS011;5842;52.426;4.886;2023-02-24T08:58:49;19.70;;;5.23;;
11572;SDS011;5842;52.426;4.886;2023-02-24T09:01:22;16.40;;;5.47;;
11572;SDS011;5842;52.426;4.886;2023-02-24T09:03:50;18.17;;;5.97;;
11572;SDS011;5842;52.426;4.886;2023-02-24T09:06:19;19.33;;;6.63;;
11572;SDS011;5842;52.426;4.886;2023-02-24T09:08:50;16.53;;;6.60;;
11572;SDS011;5842;52.426;4.886;2023-02-24T09:11:37;15.47;;;6.63;;
11572;SDS011;5842;52.426;4.886;2023-02-24T09:14:10;14.00;;;6.67;;
11572;SDS011;5842;52.426;4.886;2023-02-24T09:16:41;21.80;;;7.80;;
11572;SDS011;5842;52.426;4.886;2023-02-24T09:19:26;25.00;;;7.80;;
11572;SDS011;5842;52.426;4.886;2023-02-24T09:22:26;18.87;;;8.13;;
11572;SDS011;5842;52.426;4.886;2023-02-24T09:24:56;20.33;;;7.87;;
11572;SDS011;5842;52.426;4.886;2023-02-24T09:27:42;16.60;;;8.50;;
11572;SDS011;5842;52.426;4.886;2023-02-24T09:30:12;20.40;;;8.80;;
11572;SDS011;5842;52.426;4.886;2023-02-24T09:33:00;25.50;;;9.63;;
11572;SDS011;5842;52.426;4.886;2023-02-24T09:35:27;19.50;;;9.00;;
11572;SDS011;5842;52.426;4.886;2023-02-24T09:38:00;22.73;;;9.57;;
11572;SDS011;5842;52.426;4.886;2023-02-24T09:40:30;22.40;;;10.43;;
11572;SDS011;5842;52.426;4.886;2023-02-24T09:43:04;24.90;;;11.37;;
11572;SDS011;5842;52.426;4.886;2023-02-24T09:45:59;26.77;;;12.53;;
11572;SDS011;5842;52.426;4.886;2023-02-24T09:48:39;27.53;;;11.33;;
11572;SDS011;5842;52.426;4.886;2023-02-24T09:51:13;25.23;;;11.23;;
11572;SDS011;5842;52.426;4.886;2023-02-24T09:53:45;23.33;;;11.90;;
11572;SDS011;5842;52.426;4.886;2023-02-24T09:56:26;21.57;;;12.00;;
11572;SDS011;5842;52.426;4.886;2023-02-24T09:58:56;23.40;;;11.73;;
11572;SDS011;5842;52.426;4.886;2023-02-24T10:01:49;21.47;;;11.60;;
11572;SDS011;5842;52.426;4.886;2023-02-24T10:04:23;19.67;;;12.03;;
11572;SDS011;5842;52.426;4.886;2023-02-24T10:06:54;21.47;;;11.27;;
11572;SDS011;5842;52.426;4.886;2023-02-24T10:09:27;21.93;;;10.90;;
11572;SDS011;5842;52.426;4.886;2023-02-24T10:12:04;17.43;;;10.23;;
11572;SDS011;5842;52.426;4.886;2023-02-24T10:14:36;22.70;;;11.90;;
11572;SDS011;5842;52.426;4.886;2023-02-24T10:17:13;25.17;;;12.10;;
11572;SDS011;5842;52.426;4.886;2023-02-24T10:19:50;24.57;;;12.27;;
11572;SDS011;5842;52.426;4.886;2023-02-24T10:22:32;25.00;;;12.53;;
11572;SDS011;5842;52.426;4.886;2023-02-24T10:25:10;23.00;;;11.80;;
11572;SDS011;5842;52.426;4.886;2023-02-24T10:27:47;20.27;;;10.33;;
11572;SDS011;5842;52.426;4.886;2023-02-24T10:30:25;21.43;;;9.67;;
11572;SDS011;5842;52.426;4.886;2023-02-24T10:32:56;21.17;;;8.83;;
11572;SDS011;5842;52.426;4.886;2023-02-24T10:35:26;18.47;;;7.47;;
11572;SDS011;5842;52.426;4.886;2023-02-24T10:37:57;14.17;;;6.00;;
11572;SDS011;5842;52.426;4.886;2023-02-24T10:40:29;12.40;;;5.60;;
11572;SDS011;5842;52.426;4.886;2023-02-24T10:43:09;12.93;;;5.00;;
11572;SDS011;5842;52.426;4.886;2023-02-24T10:45:42;14.57;;;4.70;;
11572;SDS011;5842;52.426;4.886;2023-02-24T10:48:16;11.43;;;4.53;;
11572;SDS011;5842;52.426;4.886;2023-02-24T10:50:49;13.70;;;4.13;;
11572;SDS011;5842;52.426;4.886;2023-02-24T10:53:19;13.37;;;4.57;;
11572;SDS011;5842;52.426;4.886;2023-02-24T10:56:02;13.57;;;4.50;;
11572;SDS011;5842;52.426;4.886;2023-02-24T10:58:57;17.17;;;3.57;;
11572;SDS011;5842;52.426;4.886;2023-02-24T11:01:44;12.53;;;3.60;;
11572;SDS011;5842;52.426;4.886;2023-02-24T11:04:21;15.07;;;3.57;;
11572;SDS011;5842;52.426;4.886;2023-02-24T11:07:01;16.33;;;3.70;;
11572;SDS011;5842;52.426;4.886;2023-02-24T11:09:33;12.17;;;3.40;;
11572;SDS011;5842;52.426;4.886;2023-02-24T11:12:11;14.00;;;3.30;;
11572;SDS011;5842;52.426;4.886;2023-02-24T11:14:57;14.97;;;3.17;;
11572;SDS011;5842;52.426;4.886;2023-02-24T11:17:47;17.17;;;4.07;;
11572;SDS011;5842;52.426;4.886;2023-02-24T11:20:20;25.40;;;4.67;;
11572;SDS011;5842;52.426;4.886;2023-02-24T11:22:48;21.50;;;5.07;;
11572;SDS011;5842;52.426;4.886;2023-02-24T11:25:21;17.33;;;4.20;;
11572;SDS011;5842;52.426;4.886;2023-02-24T11:27:51;24.53;;;4.57;;
11572;SDS011;5842;52.426;4.886;2023-02-24T11:30:20;18.17;;;4.23;;
11572;SDS011;5842;52.426;4.886;2023-02-24T11:32:53;19.93;;;4.30;;
11572;SDS011;5842;52.426;4.886;2023-02-24T11:35:28;22.60;;;3.90;;
11572;SDS011;5842;52.426;4.886;2023-02-24T11:38:00;19.27;;;4.37;;
11572;SDS011;5842;52.426;4.886;2023-02-24T11:40:31;26.50;;;4.47;;
11572;SDS011;5842;52.426;4.886;2023-02-24T11:43:01;19.40;;;4.63;;
11572;SDS011;5842;52.426;4.886;2023-02-24T11:45:32;23.63;;;4.53;;
11572;SDS011;5842;52.426;4.886;2023-02-24T11:48:01;18.23;;;4.10;;
11572;SDS011;5842;52.426;4.886;2023-02-24T11:50:41;19.67;;;5.77;;
11572;SDS011;5842;52.426;4.886;2023-02-24T11:53:14;23.90;;;4.53;;
11572;SDS011;5842;52.426;4.886;2023-02-24T11:55:43;21.10;;;4.53;;
11572;SDS011;5842;52.426;4.886;2023-02-24T11:58:13;21.73;;;4.70;;
11572;SDS011;5842;52.426;4.886;2023-02-24T12:00:47;21.63;;;4.30;;
11572;SDS011;5842;52.426;4.886;2023-02-24T12:03:21;24.67;;;4.70;;
11572;SDS011;5842;52.426;4.886;2023-02-24T12:05:51;24.53;;;4.20;;
11572;SDS011;5842;52.426;4.886;2023-02-24T12:08:22;20.10;;;4.50;;
11572;SDS011;5842;52.426;4.886;2023-02-24T12:10:52;17.50;;;3.80;;
11572;SDS011;5842;52.426;4.886;2023-02-24T12:13:21;22.93;;;4.60;;
11572;SDS011;5842;52.426;4.886;2023-02-24T12:15:50;17.80;;;3.80;;
11572;SDS011;5842;52.426;4.886;2023-02-24T12:18:23;19.20;;;4.60;;
11572;SDS011;5842;52.426;4.886;2023-02-24T12:20:56;20.90;;;4.20;;
11572;SDS011;5842;52.426;4.886;2023-02-24T12:23:26;21.37;;;4.53;;
11572;SDS011;5842;52.426;4.886;2023-02-24T12:25:58;23.53;;;4.73;;
11572;SDS011;5842;52.426;4.886;2023-02-24T12:31:35;14.60;;;3.43;;
11572;SDS011;5842;52.426;4.886;2023-02-24T12:34:07;25.57;;;4.50;;
11572;SDS011;5842;52.426;4.886;2023-02-24T12:36:44;24.23;;;4.33;;
11572;SDS011;5842;52.426;4.886;2023-02-24T12:39:12;18.90;;;3.80;;
11572;SDS011;5842;52.426;4.886;2023-02-24T12:41:45;17.37;;;3.20;;
11572;SDS011;5842;52.426;4.886;2023-02-24T12:44:18;22.63;;;3.40;;
11572;SDS011;5842;52.426;4.886;2023-02-24T12:46:48;9.47;;;2.40;;
11572;SDS011;5842;52.426;4.886;2023-02-24T12:49:31;8.67;;;2.40;;
11572;SDS011;5842;52.426;4.886;2023-02-24T12:52:06;10.80;;;2.20;;
11572;SDS011;5842;52.426;4.886;2023-02-24T12:54:36;7.37;;;1.87;;
11572;SDS011;5842;52.426;4.886;2023-02-24T12:57:08;5.90;;;1.63;;
11572;SDS011;5842;52.426;4.886;2023-02-24T12:59:38;7.77;;;2.20;;
11572;SDS011;5842;52.426;4.886;2023-02-24T13:02:06;10.10;;;2.30;;
11572;SDS011;5842;52.426;4.886;2023-02-24T13:04:38;10.60;;;2.53;;
11572;SDS011;5842;52.426;4.886;2023-02-24T13:07:16;12.50;;;2.30;;
11572;SDS011;5842;52.426;4.886;2023-02-24T13:09:45;14.00;;;2.93;;
11572;SDS011;5842;52.426;4.886;2023-02-24T13:12:15;18.87;;;3.37;;
11572;SDS011;5842;52.426;4.886;2023-02-24T13:14:43;13.17;;;2.90;;
11572;SDS011;5842;52.426;4.886;2023-02-24T13:17:15;17.27;;;3.13;;
11572;SDS011;5842;52.426;4.886;2023-02-24T13:19:44;14.03;;;2.63;;
11572;SDS011;5842;52.426;4.886;2023-02-24T13:22:20;15.23;;;3.10;;
11572;SDS011;5842;52.426;4.886;2023-02-24T13:24:54;15.13;;;3.20;;
11572;SDS011;5842;52.426;4.886;2023-02-24T13:27:22;14.97;;;2.90;;
11572;SDS011;5842;52.426;4.886;2023-02-24T13:29:51;14.37;;;3.57;;
11572;SDS011;5842;52.426;4.886;2023-02-24T13:32:23;15.53;;;3.40;;
11572;SDS011;5842;52.426;4.886;2023-02-24T13:34:52;17.17;;;3.40;;
11572;SDS011;5842;52.426;4.886;2023-02-24T13:37:26;14.33;;;3.20;;
11572;SDS011;5842;52.426;4.886;2023-02-24T13:39:54;20.20;;;4.10;;
11572;SDS011;5842;52.426;4.886;2023-02-24T13:42:22;16.60;;;3.37;;
11572;SDS011;5842;52.426;4.886;2023-02-24T13:44:51;17.40;;;3.67;;
11572;SDS011;5842;52.426;4.886;2023-02-24T13:47:32;17.20;;;3.00;;
11572;SDS011;5842;52.426;4.886;2023-02-24T13:50:09;14.47;;;3.37;;
11572;SDS011;5842;52.426;4.886;2023-02-24T13:52:48;20.57;;;3.63;;
11572;SDS011;5842;52.426;4.886;2023-02-24T14:00:54;12.60;;;2.53;;
11572;SDS011;5842;52.426;4.886;2023-02-24T14:03:26;11.37;;;2.13;;
11572;SDS011;5842;52.426;4.886;2023-02-24T14:05:54;11.17;;;2.03;;
11572;SDS011;5842;52.426;4.886;2023-02-24T14:08:28;7.47;;;2.10;;
11572;SDS011;5842;52.426;4.886;2023-02-24T14:10:57;7.23;;;1.70;;
11572;SDS011;5842;52.426;4.886;2023-02-24T14:13:28;7.87;;;1.47;;
11572;SDS011;5842;52.426;4.886;2023-02-24T14:15:58;7.23;;;1.50;;
11572;SDS011;5842;52.426;4.886;2023-02-24T14:18:28;9.67;;;1.57;;
11572;SDS011;5842;52.426;4.886;2023-02-24T14:20:56;4.40;;;1.30;;
11572;SDS011;5842;52.426;4.886;2023-02-24T14:23:27;5.73;;;1.60;;
11572;SDS011;5842;52.426;4.886;2023-02-24T14:25:58;7.70;;;1.53;;
11572;SDS011;5842;52.426;4.886;2023-02-24T14:28:27;9.83;;;1.60;;
11572;SDS011;5842;52.426;4.886;2023-02-24T14:30:56;7.27;;;1.57;;
11572;SDS011;5842;52.426;4.886;2023-02-24T14:33:26;8.90;;;1.47;;
11572;SDS011;5842;52.426;4.886;2023-02-24T14:35:54;7.63;;;1.30;;
11572;SDS011;5842;52.426;4.886;2023-02-24T14:38:30;4.80;;;1.50;;
11572;SDS011;5842;52.426;4.886;2023-02-24T14:40:59;6.20;;;1.53;;
11572;SDS011;5842;52.426;4.886;2023-02-24T14:43:26;8.57;;;1.60;;
11572;SDS011;5842;52.426;4.886;2023-02-24T14:45:54;5.73;;;1.80;;
11572;SDS011;5842;52.426;4.886;2023-02-24T14:48:24;7.13;;;1.40;;
11572;SDS011;5842;52.426;4.886;2023-02-24T14:50:51;5.43;;;1.83;;
11572;SDS011;5842;52.426;4.886;2023-02-24T14:53:19;6.37;;;1.60;;
11572;SDS011;5842;52.426;4.886;2023-02-24T14:55:50;5.90;;;1.80;;
11572;SDS011;5842;52.426;4.886;2023-02-24T14:58:22;10.73;;;2.23;;
11572;SDS011;5842;52.426;4.886;2023-02-24T15:00:52;10.07;;;2.00;;
11572;SDS011;5842;52.426;4.886;2023-02-24T15:03:22;9.43;;;2.07;;
11572;SDS011;5842;52.426;4.886;2023-02-24T15:05:51;6.73;;;1.80;;
11572;SDS011;5842;52.426;4.886;2023-02-24T15:08:25;10.13;;;2.10;;
11572;SDS011;5842;52.426;4.886;2023-02-24T15:10:56;11.07;;;1.70;;
11572;SDS011;5842;52.426;4.886;2023-02-24T15:13:26;8.87;;;1.77;;
11572;SDS011;5842;52.426;4.886;2023-02-24T15:15:55;9.27;;;2.00;;
11572;SDS011;5842;52.426;4.886;2023-02-24T15:18:24;10.30;;;2.00;;
11572;SDS011;5842;52.426;4.886;2023-02-24T15:20:58;9.10;;;2.00;;
11572;SDS011;5842;52.426;4.886;2023-02-24T15:23:26;8.40;;;1.70;;
11572;SDS011;5842;52.426;4.886;2023-02-24T15:25:54;8.93;;;2.17;;
11572;SDS011;5842;52.426;4.886;2023-02-24T15:28:25;7.20;;;1.50;;
11572;SDS011;5842;52.426;4.886;2023-02-24T15:31:00;10.67;;;1.60;;
11572;SDS011;5842;52.426;4.886;2023-02-24T15:33:29;8.23;;;1.67;;
11572;SDS011;5842;52.426;4.886;2023-02-24T15:35:58;9.13;;;1.47;;
11572;SDS011;5842;52.426;4.886;2023-02-24T15:38:28;6.90;;;1.67;;
11572;SDS011;5842;52.426;4.886;2023-02-24T15:40:56;12.30;;;2.43;;
11572;SDS011;5842;52.426;4.886;2023-02-24T15:43:33;11.90;;;2.17;;